Terminal Aerodrome Forecast
Issued by NWS Birmingham, AL

Home | Current Version | Previous Version | Text Only | Print | Product List | Glossary On
Versions: 1 2 3 4 5 6 7 8 9 10 11 12 13
416
FTUS44 KBMX 221120
TAFBHM
TAF
KBHM 221120Z 2212/2312 11010G16KT P6SM VCSH BKN016
     FM221600 12015G25KT 3SM SHRA OVC010 PROB30 2222/2302 2SM TSRA
      BKN007CB
     FM230500 10010G15KT P6SM BKN007 OVC015=

USA.gov is the U.S. government's official web portal to all federal, state and local government web resources and services.